| time (UTC) | temp F | wind direction | speed MPH | gust MPH | rain 1hr in | rain 24hr in | rain mn in | humidity % | barometer mb |
| 20260508114550 | 43 | 27 | 0.0 | 0.0 | 0.00 | 0.77 | 0.01 | 96 | 1016.1 |
| 20260508113048 | 42 | 27 | 0.0 | 0.0 | 0.00 | 0.77 | 0.01 | 96 | 1015.8 |
| 20260508111546 | 42 | 27 | 0.0 | 0.0 | 0.00 | 0.77 | 0.01 | 96 | 1015.6 |
| 20260508110045 | 41 | 27 | 0.0 | 0.0 | 0.00 | 0.77 | 0.01 | 95 | 1015.3 |
| 20260508104544 | 41 | 27 | 0.0 | 0.0 | 0.00 | 0.77 | 0.01 | 95 | 1014.9 |
| 20260508103039 | 41 | 27 | 0.0 | 0.0 | 0.00 | 0.77 | 0.01 | 95 | 1014.5 |
| 20260508101541 | 42 | 27 | 0.0 | 0.0 | 0.00 | 0.77 | 0.01 | 95 | 1014.3 |
| 20260508100039 | 42 | 27 | 0.0 | 0.0 | 0.00 | 0.77 | 0.01 | 95 | 1014.3 |
| 20260508094533 | 42 | 27 | 0.0 | 0.0 | 0.00 | 0.77 | 0.01 | 95 | 1014.2 |
| 20260508093032 | 43 | 27 | 0.0 | 0.0 | 0.00 | 0.77 | 0.01 | 95 | 1014.0 |
| 20260508091532 | 43 | 27 | 0.0 | 0.0 | 0.00 | 0.77 | 0.01 | 95 | 1013.8 |
| 20260508090044 | 43 | 27 | 0.0 | 0.0 | 0.00 | 0.77 | 0.01 | 95 | 1013.8 |
| 20260508084526 | 43 | 27 | 0.0 | 0.0 | 0.00 | 0.78 | 0.01 | 95 | 1013.9 |
| 20260508083026 | 44 | 27 | 0.0 | 0.0 | 0.00 | 0.78 | 0.01 | 95 | 1013.6 |
| 20260508081524 | 44 | 27 | 0.0 | 0.0 | 0.00 | 0.78 | 0.01 | 95 | 1013.5 |
| 20260508080023 | 44 | 27 | 0.0 | 0.0 | 0.00 | 0.78 | 0.01 | 95 | 1013.2 |
| 20260508074524 | 44 | 27 | 0.0 | 0.0 | 0.00 | 0.78 | 0.01 | 95 | 1013.2 |
| 20260508073023 | 44 | 27 | 0.0 | 0.0 | 0.00 | 0.78 | 0.01 | 95 | 1013.2 |
| 20260508071517 | 45 | 27 | 0.0 | 0.0 | 0.00 | 0.78 | 0.01 | 95 | 1013.1 |
| 20260508070016 | 45 | 27 | 0.0 | 0.0 | 0.00 | 0.78 | 0.01 | 95 | 1013.0 |
| 20260508064514 | 45 | 27 | 0.0 | 0.0 | 0.00 | 0.79 | 0.01 | 95 | 1012.8 |
| 20260508063013 | 45 | 27 | 0.0 | 0.0 | 0.00 | 0.79 | 0.01 | 95 | 1012.7 |
| 20260508061511 | 46 | 27 | 0.0 | 0.0 | 0.00 | 0.79 | 0.01 | 95 | 1012.6 |
| 20260508060010 | 46 | 27 | 0.0 | 0.0 | 0.00 | 0.79 | 0.01 | 94 | 1012.7 |
| 20260508054508 | 46 | 27 | 0.0 | 0.0 | 0.01 | 0.80 | 0.01 | 94 | 1012.5 |
| 20260508053010 | 46 | 27 | 0.0 | 0.0 | 0.01 | 0.80 | 0.01 | 94 | 1012.5 |
| 20260508051505 | 47 | 27 | 0.0 | 0.0 | 0.01 | 0.80 | 0.01 | 94 | 1012.4 |
| 20260508050003 | 47 | 26 | 0.0 | 0.0 | 0.01 | 0.80 | 0.01 | 94 | 1012.4 |
| 20260508044601 | 47 | 27 | 0.0 | 0.0 | 0.00 | 0.80 | 0.00 | 94 | 1012.4 |
| 20260508043059 | 48 | 27 | 0.0 | 0.0 | 0.00 | 0.80 | 0.00 | 94 | 1012.2 |
| 20260508041559 | 48 | 27 | 0.0 | 0.0 | 0.00 | 0.80 | 0.00 | 94 | 1012.2 |
| 20260508040100 | 48 | 27 | 0.0 | 0.0 | 0.00 | 0.80 | 0.00 | 94 | 1012.3 |
| 20260508034555 | 48 | 27 | 0.0 | 0.0 | 0.00 | 0.83 | 0.80 | 94 | 1012.0 |
| 20260508033059 | 49 | 27 | 0.0 | 0.0 | 0.00 | 0.83 | 0.80 | 94 | 1012.1 |
| 20260508031557 | 49 | 27 | 0.0 | 0.0 | 0.00 | 0.83 | 0.80 | 93 | 1011.9 |
| 20260508030058 | 49 | 27 | 0.0 | 0.0 | 0.00 | 0.83 | 0.80 | 93 | 1011.5 |
| 20260508024613 | 50 | 27 | 0.0 | 0.0 | 0.00 | 0.86 | 0.80 | 93 | 1011.3 |
| 20260508023044 | 51 | 27 | 0.0 | 0.0 | 0.00 | 0.86 | 0.80 | 93 | 1011.4 |
| 20260508021548 | 51 | 27 | 0.0 | 0.0 | 0.00 | 0.86 | 0.80 | 93 | 1011.3 |
| 20260508020048 | 52 | 27 | 0.0 | 0.0 | 0.00 | 0.86 | 0.80 | 93 | 1010.7 |
| 20260508014545 | 52 | 27 | 0.0 | 0.0 | 0.00 | 0.89 | 0.80 | 93 | 1010.8 |
| 20260508013036 | 53 | 27 | 0.0 | 0.0 | 0.00 | 0.89 | 0.80 | 92 | 1010.2 |
| 20260508011533 | 54 | 27 | 0.0 | 0.0 | 0.00 | 0.89 | 0.80 | 93 | 1009.8 |
| 20260508010033 | 55 | 27 | 0.0 | 2.0 | 0.00 | 0.89 | 0.80 | 93 | 1009.7 |
| 20260508004540 | 56 | 27 | 0.0 | 0.0 | 0.00 | 0.90 | 0.80 | 93 | 1009.4 |
| 20260508003025 | 56 | 27 | 0.0 | 0.0 | 0.00 | 0.90 | 0.80 | 93 | 1009.1 |
| 20260508001532 | 57 | 27 | 0.0 | 0.0 | 0.00 | 0.90 | 0.80 | 93 | 1009.2 |
| 20260508000022 | 58 | 27 | 0.0 | 0.0 | 0.00 | 0.90 | 0.80 | 93 | 1009.1 |
| 20260507234520 | 58 | 74 | 0.0 | 0.0 | 0.00 | 0.90 | 0.80 | 93 | 1008.9 |
| 20260507233019 | 58 | 74 | 0.0 | 0.0 | 0.00 | 0.90 | 0.80 | 93 | 1009.1 |
| 20260507231518 | 58 | 74 | 0.0 | 0.0 | 0.00 | 0.90 | 0.80 | 92 | 1008.7 |
| 20260507230018 | 59 | 74 | 0.0 | 0.0 | 0.00 | 0.90 | 0.80 | 92 | 1008.2 |
| 20260507224519 | 59 | 74 | 0.0 | 0.0 | 0.00 | 0.90 | 0.80 | 93 | 1008.1 |
| 20260507223017 | 59 | 74 | 0.0 | 0.0 | 0.00 | 0.90 | 0.80 | 93 | 1007.8 |
| 20260507221517 | 59 | 74 | 0.0 | 0.0 | 0.00 | 0.90 | 0.80 | 93 | 1007.5 |
| 20260507220017 | 58 | 74 | 0.0 | 2.0 | 0.08 | 0.90 | 0.80 | 93 | 1007.2 |
| 20260507214516 | 58 | 80 | 0.0 | 5.0 | 0.30 | 0.90 | 0.80 | 93 | 1007.0 |
| 20260507213022 | 58 | 38 | 0.0 | 2.0 | 0.30 | 0.90 | 0.80 | 93 | 1006.9 |
| 20260507211514 | 59 | 32 | 0.0 | 1.0 | 0.32 | 0.90 | 0.80 | 93 | 1007.1 |
| 20260507210013 | 59 | 32 | 0.0 | 0.0 | 0.32 | 0.80 | 0.70 | 92 | 1006.6 |
| 20260507204511 | 59 | 32 | 0.0 | 0.0 | 0.19 | 0.60 | 0.50 | 93 | 1006.5 |
| 20260507203013 | 59 | 32 | 0.0 | 3.0 | 0.20 | 0.60 | 0.50 | 92 | 1006.7 |
| 20260507201508 | 60 | 30 | 0.0 | 4.0 | 0.19 | 0.57 | 0.48 | 92 | 1006.6 |
| 20260507200006 | 61 | 30 | 0.0 | 4.0 | 0.08 | 0.47 | 0.37 | 91 | 1006.3 |
| 20260507194506 | 62 | 28 | 0.0 | 7.0 | 0.01 | 0.40 | 0.30 | 89 | 1006.4 |
| 20260507193002 | 65 | 339 | 0.0 | 4.0 | 0.01 | 0.40 | 0.30 | 85 | 1006.0 |
| 20260507191503 | 70 | 327 | 1.0 | 8.0 | 0.00 | 0.39 | 0.28 | 75 | 1006.0 |
| 20260507190006 | 73 | 174 | 0.0 | 6.0 | 0.00 | 0.39 | 0.28 | 75 | 1005.1 |
| 20260507184502 | 73 | 170 | 0.0 | 1.0 | 0.00 | 0.39 | 0.28 | 75 | 1005.1 |
| 20260507183059 | 74 | 170 | 1.0 | 5.0 | 0.00 | 0.39 | 0.28 | 73 | 1005.7 |
| 20260507183005 | 74 | 169 | 1.0 | 5.0 | 0.00 | 0.39 | 0.28 | 74 | 1005.7 |
| 20260507181558 | 75 | 169 | 0.0 | 4.0 | 0.00 | 0.39 | 0.28 | 72 | 1005.7 |
| 20260507180056 | 75 | 167 | 0.0 | 2.0 | 0.00 | 0.39 | 0.28 | 71 | 1005.7 |
| 20260507174556 | 75 | 163 | 0.0 | 8.0 | 0.00 | 0.39 | 0.28 | 72 | 1005.8 |
| 20260507173123 | 73 | 174 | 0.0 | 5.0 | 0.00 | 0.39 | 0.28 | 74 | 1005.8 |
| 20260507171545 | 73 | 173 | 0.0 | 2.0 | 0.00 | 0.39 | 0.28 | 76 | 1006.2 |
| 20260507170041 | 71 | 171 | 0.0 | 3.0 | 0.00 | 0.39 | 0.28 | 86 | 1006.9 |
| 20260507164537 | 69 | 167 | 0.0 | 0.0 | 0.00 | 0.39 | 0.28 | 88 | 1006.8 |
| 20260507163038 | 68 | 167 | 0.0 | 0.0 | 0.00 | 0.39 | 0.28 | 90 | 1006.7 |
| 20260507161540 | 67 | 167 | 0.0 | 0.0 | 0.00 | 0.39 | 0.28 | 91 | 1006.7 |
| 20260507160032 | 66 | 167 | 0.0 | 0.0 | 0.00 | 0.39 | 0.28 | 93 | 1006.7 |
| 20260507154527 | 65 | 167 | 0.0 | 0.0 | 0.00 | 0.39 | 0.28 | 94 | 1006.6 |
| 20260507153023 | 65 | 167 | 0.0 | 0.0 | 0.00 | 0.39 | 0.28 | 95 | 1007.0 |
| 20260507151522 | 64 | 167 | 0.0 | 0.0 | 0.00 | 0.39 | 0.28 | 95 | 1007.2 |
| 20260507150033 | 64 | 167 | 0.0 | 0.0 | 0.00 | 0.39 | 0.28 | 95 | 1007.8 |
| 20260507144522 | 64 | 167 | 0.0 | 0.0 | 0.01 | 0.39 | 0.28 | 95 | 1007.5 |
| 20260507143020 | 64 | 167 | 0.0 | 0.0 | 0.01 | 0.39 | 0.28 | 95 | 1007.8 |
| 20260507141518 | 64 | 167 | 0.0 | 0.0 | 0.02 | 0.39 | 0.28 | 96 | 1007.2 |
| 20260507140015 | 63 | 167 | 0.0 | 0.0 | 0.02 | 0.39 | 0.28 | 96 | 1007.5 |
| 20260507134513 | 63 | 167 | 0.0 | 0.0 | 0.04 | 0.38 | 0.28 | 96 | 1007.1 |
| 20260507133019 | 62 | 167 | 0.0 | 0.0 | 0.11 | 0.38 | 0.28 | 96 | 1007.2 |
| 20260507131527 | 62 | 167 | 0.0 | 0.0 | 0.16 | 0.37 | 0.27 | 96 | 1007.1 |
| 20260507130118 | 62 | 167 | 0.0 | 0.0 | 0.20 | 0.37 | 0.27 | 95 | 1006.8 |
| 20260507124548 | 62 | 167 | 0.0 | 0.0 | 0.18 | 0.34 | 0.24 | 95 | 1007.3 |
| 20260507123044 | 62 | 167 | 0.0 | 0.0 | 0.13 | 0.27 | 0.17 | 95 | 1008.5 |
| 20260507121541 | 62 | 152 | 0.0 | 0.0 | 0.07 | 0.21 | 0.11 | 95 | 1008.7 |
| 20260507120035 | 62 | 152 | 0.0 | 0.0 | 0.02 | 0.16 | 0.06 | 95 | 1008.8 |